createdAt,value
2018-10-05T00:00:17.901Z,13.17
2018-10-05T00:02:52.803Z,13.17
2018-10-05T00:05:41.612Z,13.20
2018-10-05T00:08:16.200Z,13.20
2018-10-05T00:10:50.673Z,13.16
2018-10-05T00:13:25.105Z,13.22
2018-10-05T00:16:07.065Z,13.20
2018-10-05T00:18:41.676Z,13.23
2018-10-05T00:21:16.229Z,13.26
2018-10-05T00:23:50.908Z,13.33
2018-10-05T00:26:25.383Z,13.34
2018-10-05T00:28:59.816Z,13.35
2018-10-05T00:31:34.277Z,13.20
2018-10-05T00:34:09.005Z,13.44
2018-10-05T00:36:43.689Z,13.41
2018-10-05T00:39:18.200Z,13.47
2018-10-05T00:41:52.750Z,13.26
2018-10-05T00:44:27.530Z,13.24
2018-10-05T00:47:02.045Z,13.25
2018-10-05T00:49:36.681Z,13.12
2018-10-05T00:52:11.640Z,13.08
2018-10-05T00:57:45.243Z,13.21
2018-10-05T01:00:20.896Z,13.11
2018-10-05T01:02:55.568Z,13.16
2018-10-05T01:05:30.083Z,13.12
2018-10-05T01:08:04.475Z,13.14
2018-10-05T01:10:51.128Z,13.07
2018-10-05T01:16:30.742Z,12.94
2018-10-05T01:19:28.161Z,12.90
2018-10-05T01:22:03.561Z,12.97
2018-10-05T01:24:38.383Z,12.93
2018-10-05T01:27:13.045Z,12.82
2018-10-05T01:29:47.759Z,12.84
2018-10-05T01:32:22.644Z,12.87
2018-10-05T01:34:57.576Z,12.82
2018-10-05T01:37:32.099Z,12.90
2018-10-05T01:40:06.556Z,12.96
2018-10-05T01:42:40.895Z,12.88
2018-10-05T01:45:15.891Z,12.83
2018-10-05T01:47:51.872Z,12.83
2018-10-05T01:50:26.489Z,12.92
2018-10-05T01:53:15.733Z,12.81
2018-10-05T01:55:50.412Z,12.85
2018-10-05T01:58:38.389Z,12.78
2018-10-05T02:01:12.772Z,12.87
2018-10-05T02:03:47.768Z,12.92
2018-10-05T02:06:22.424Z,12.96
2018-10-05T02:08:57.180Z,12.90
2018-10-05T02:11:32.233Z,13.01
2018-10-05T02:14:06.692Z,12.95
2018-10-05T02:16:41.410Z,12.83
2018-10-05T02:19:15.946Z,12.87
2018-10-05T02:21:51.166Z,12.90
2018-10-05T02:24:25.867Z,12.89
2018-10-05T02:27:01.989Z,12.93
2018-10-05T02:29:36.512Z,13.01
2018-10-05T02:32:11.319Z,12.92
2018-10-05T02:34:46.313Z,12.98
2018-10-05T02:37:20.780Z,13.00
2018-10-05T02:39:55.232Z,12.90
2018-10-05T02:42:30.328Z,12.92
2018-10-05T02:45:04.908Z,12.85
2018-10-05T02:48:02.283Z,12.89
2018-10-05T02:50:37.393Z,12.98
2018-10-05T02:53:12.023Z,12.99
2018-10-05T02:55:46.520Z,12.91
2018-10-05T02:58:21.046Z,12.98
2018-10-05T03:01:07.012Z,12.95
2018-10-05T03:03:41.476Z,12.92
2018-10-05T03:06:15.946Z,12.97
2018-10-05T03:08:50.319Z,12.98
2018-10-05T03:11:25.264Z,12.96
2018-10-05T03:13:59.880Z,12.95
2018-10-05T03:16:34.576Z,13.01
2018-10-05T03:19:09.088Z,12.98
2018-10-05T03:21:43.885Z,12.97
2018-10-05T03:24:18.474Z,13.08
2018-10-05T03:26:53.152Z,13.09
2018-10-05T03:29:27.897Z,13.06
2018-10-05T03:32:02.467Z,12.96
2018-10-05T03:34:37.287Z,12.99
2018-10-05T03:37:11.948Z,13.06
2018-10-05T03:39:46.870Z,12.94
2018-10-05T03:42:21.453Z,12.91
2018-10-05T03:44:55.965Z,12.93
2018-10-05T03:47:30.861Z,13.03
2018-10-05T03:50:05.483Z,13.06
2018-10-05T03:52:40.147Z,13.11
2018-10-05T03:55:15.003Z,12.98
2018-10-05T03:57:49.509Z,13.02
2018-10-05T04:00:24.181Z,12.90
2018-10-05T04:03:14.956Z,13.08
2018-10-05T04:05:49.745Z,12.97
2018-10-05T04:08:24.297Z,13.00
2018-10-05T04:10:58.931Z,13.07
2018-10-05T04:13:33.596Z,12.98
2018-10-05T04:16:08.722Z,12.87
2018-10-05T04:21:40.032Z,12.92
2018-10-05T04:24:14.783Z,12.88
2018-10-05T04:26:49.301Z,13.00
2018-10-05T04:29:23.916Z,12.89
2018-10-05T04:31:58.497Z,13.01
2018-10-05T04:34:33.344Z,12.89
2018-10-05T04:37:08.287Z,12.88
2018-10-05T04:39:42.837Z,12.85
2018-10-05T04:42:17.467Z,12.86
2018-10-05T04:44:51.894Z,12.91
2018-10-05T04:47:26.403Z,12.79
2018-10-05T04:50:01.044Z,12.80
2018-10-05T04:52:35.463Z,12.75
2018-10-05T04:55:09.948Z,12.73
2018-10-05T04:57:44.357Z,12.87
2018-10-05T05:00:19.409Z,12.78
2018-10-05T05:02:54.073Z,12.88
2018-10-05T05:05:28.868Z,12.82
2018-10-05T05:08:03.376Z,12.83
2018-10-05T05:10:38.050Z,12.78
2018-10-05T05:13:26.537Z,12.83
2018-10-05T05:16:01.386Z,12.93
2018-10-05T05:18:55.180Z,12.95
2018-10-05T05:21:29.679Z,12.98
2018-10-05T05:24:04.737Z,13.02
2018-10-05T05:26:39.070Z,13.18
2018-10-05T05:29:13.665Z,13.05
2018-10-05T05:31:48.385Z,12.99
2018-10-05T05:34:22.837Z,13.04
2018-10-05T05:36:57.432Z,13.08
2018-10-05T05:39:31.904Z,13.12
2018-10-05T05:42:07.521Z,13.03
2018-10-05T05:44:48.956Z,12.98
2018-10-05T05:47:33.561Z,13.02
2018-10-05T05:50:08.056Z,12.91
2018-10-05T05:52:42.673Z,12.96
2018-10-05T05:55:17.173Z,12.98
2018-10-05T05:57:51.692Z,12.92
2018-10-05T06:00:26.325Z,13.09
2018-10-05T06:06:00.627Z,13.08
2018-10-05T06:08:35.289Z,13.08
2018-10-05T06:11:09.972Z,13.14
2018-10-05T06:16:41.539Z,13.15
2018-10-05T06:19:16.076Z,13.24
2018-10-05T06:21:51.141Z,13.36
2018-10-05T06:24:36.748Z,13.33
2018-10-05T06:27:11.181Z,13.40
2018-10-05T06:29:45.554Z,13.62
2018-10-05T06:32:19.975Z,13.62
2018-10-05T06:34:54.409Z,13.56
2018-10-05T06:37:30.072Z,13.72
2018-10-05T06:40:04.463Z,13.74
2018-10-05T06:42:38.738Z,13.80
2018-10-05T06:45:13.662Z,13.85
2018-10-05T06:47:47.999Z,13.91
2018-10-05T06:50:22.432Z,13.98
2018-10-05T06:52:56.940Z,14.11
2018-10-05T06:55:31.427Z,14.27
2018-10-05T06:58:05.947Z,14.30
2018-10-05T07:00:40.633Z,14.49
2018-10-05T07:03:15.039Z,15.50
2018-10-05T07:05:49.553Z,18.53
2018-10-05T07:08:26.040Z,21.88
2018-10-05T07:11:00.744Z,23.69
2018-10-05T07:13:35.797Z,24.58
2018-10-05T07:16:10.388Z,24.53
2018-10-05T07:18:46.106Z,23.85
2018-10-05T07:21:21.106Z,23.46
2018-10-05T07:23:56.075Z,22.84
2018-10-05T07:26:30.488Z,21.84
2018-10-05T07:29:05.049Z,20.15
2018-10-05T07:31:39.654Z,19.17
2018-10-05T07:34:14.457Z,19.31
2018-10-05T07:36:49.150Z,18.86
2018-10-05T07:39:25.408Z,18.89
2018-10-05T07:42:00.037Z,18.16
2018-10-05T07:44:34.810Z,18.12
2018-10-05T07:47:09.580Z,17.84
2018-10-05T07:49:43.976Z,18.02
2018-10-05T07:52:26.389Z,17.66
2018-10-05T07:55:01.030Z,17.42
2018-10-05T07:57:35.669Z,17.37
2018-10-05T08:00:10.450Z,17.42
2018-10-05T08:02:45.013Z,17.43
2018-10-05T08:05:20.776Z,17.31
2018-10-05T08:07:55.228Z,17.33
2018-10-05T08:10:29.817Z,17.97
2018-10-05T08:13:04.530Z,18.24
2018-10-05T08:15:39.516Z,18.16
2018-10-05T08:18:14.256Z,17.95
2018-10-05T08:20:48.800Z,17.63
2018-10-05T08:23:23.441Z,17.89
2018-10-05T08:25:58.059Z,17.59
2018-10-05T08:28:32.582Z,17.82
2018-10-05T08:31:08.766Z,17.76
2018-10-05T08:33:45.572Z,17.86
2018-10-05T08:36:20.189Z,18.11
2018-10-05T08:38:55.049Z,18.10
2018-10-05T08:41:29.676Z,18.10
2018-10-05T08:44:04.467Z,18.32
2018-10-05T08:46:39.152Z,18.41
2018-10-05T08:49:13.809Z,18.30
2018-10-05T08:51:48.479Z,18.56
2018-10-05T08:54:23.398Z,18.49
2018-10-05T08:56:58.045Z,18.70
2018-10-05T08:59:32.492Z,19.23
2018-10-05T09:02:07.016Z,18.86
2018-10-05T09:04:41.592Z,19.08
2018-10-05T09:07:16.057Z,19.29
2018-10-05T09:09:50.969Z,19.68
2018-10-05T09:12:25.866Z,19.99
2018-10-05T09:15:00.532Z,21.76
2018-10-05T09:17:35.287Z,22.80
2018-10-05T09:20:09.876Z,22.73
2018-10-05T09:22:44.873Z,22.94
2018-10-05T09:25:19.553Z,23.21
2018-10-05T09:27:54.165Z,22.34
2018-10-05T09:30:29.071Z,21.41
2018-10-05T09:33:03.959Z,20.45
2018-10-05T09:35:38.648Z,20.53
2018-10-05T09:38:13.092Z,20.16
2018-10-05T09:40:47.666Z,19.84
2018-10-05T09:43:22.283Z,19.51
2018-10-05T09:45:56.794Z,19.71
2018-10-05T09:48:31.821Z,19.74
2018-10-05T09:51:06.537Z,19.72
2018-10-05T09:53:41.105Z,19.77
2018-10-05T09:56:17.359Z,19.80
2018-10-05T09:58:52.256Z,19.90
2018-10-05T10:01:32.387Z,19.93
2018-10-05T10:04:07.440Z,19.87
2018-10-05T10:06:43.002Z,20.10
2018-10-05T10:09:18.448Z,20.13
2018-10-05T10:11:53.466Z,20.20
2018-10-05T10:14:28.268Z,20.31
2018-10-05T10:17:03.095Z,20.32
2018-10-05T10:19:37.708Z,20.50
2018-10-05T10:22:12.233Z,20.60
2018-10-05T10:24:46.692Z,20.58
2018-10-05T10:27:21.285Z,20.86
2018-10-05T10:29:56.347Z,20.38
2018-10-05T10:32:49.476Z,20.63
2018-10-05T10:35:24.600Z,20.87
2018-10-05T10:38:06.836Z,20.72
2018-10-05T10:40:41.291Z,20.83
2018-10-05T10:43:15.697Z,20.99
2018-10-05T10:45:50.353Z,20.85
2018-10-05T10:48:24.893Z,21.03
2018-10-05T10:50:59.348Z,21.15
2018-10-05T10:53:33.825Z,21.08
2018-10-05T10:56:08.465Z,20.97
2018-10-05T10:58:43.177Z,21.00
2018-10-05T11:01:17.901Z,20.99
2018-10-05T11:03:52.983Z,21.09
2018-10-05T11:06:32.674Z,21.14
2018-10-05T11:09:07.776Z,21.16
2018-10-05T11:11:42.220Z,21.09
2018-10-05T11:14:16.760Z,21.19
2018-10-05T11:16:51.297Z,21.16
2018-10-05T11:19:26.180Z,20.79
2018-10-05T11:25:00.833Z,21.47
2018-10-05T11:27:35.451Z,21.46
2018-10-05T11:30:10.457Z,21.41
2018-10-05T11:32:45.335Z,21.32
2018-10-05T11:35:19.960Z,21.43
2018-10-05T11:37:54.904Z,21.53
2018-10-05T11:40:29.513Z,21.70
2018-10-05T11:43:04.104Z,21.61
2018-10-05T11:45:38.788Z,21.79
2018-10-05T11:48:13.305Z,21.74
2018-10-05T11:50:47.841Z,21.65
2018-10-05T11:53:22.472Z,21.58
2018-10-05T11:55:57.064Z,21.52
2018-10-05T11:58:31.648Z,21.58
2018-10-05T12:01:06.389Z,21.60
2018-10-05T12:03:40.905Z,21.75
2018-10-05T12:06:15.520Z,21.85
2018-10-05T12:08:54.069Z,21.96
2018-10-05T12:11:28.680Z,21.97
2018-10-05T12:14:03.693Z,21.83
2018-10-05T12:16:38.327Z,21.94
2018-10-05T12:19:12.865Z,22.16
2018-10-05T12:21:47.588Z,22.12
2018-10-05T12:24:22.354Z,22.18
2018-10-05T12:26:57.068Z,22.09
2018-10-05T12:29:31.737Z,22.00
2018-10-05T12:32:06.420Z,22.13
2018-10-05T12:34:41.184Z,22.20
2018-10-05T12:37:15.913Z,22.16
2018-10-05T12:39:50.617Z,22.32
2018-10-05T12:42:25.303Z,21.94
2018-10-05T12:44:59.822Z,22.04
2018-10-05T12:47:34.514Z,22.20
2018-10-05T12:50:09.365Z,22.16
2018-10-05T12:52:43.869Z,22.27
2018-10-05T12:55:18.495Z,22.50
2018-10-05T12:57:53.104Z,22.35
2018-10-05T13:00:27.657Z,22.37
2018-10-05T13:03:02.383Z,22.22
2018-10-05T13:05:37.288Z,22.23
2018-10-05T13:08:11.915Z,22.29
2018-10-05T13:10:46.744Z,22.39
2018-10-05T13:13:21.428Z,22.39
2018-10-05T13:15:56.254Z,22.53
2018-10-05T13:18:30.825Z,22.45
2018-10-05T13:21:05.608Z,22.53
2018-10-05T13:23:40.202Z,22.55
2018-10-05T13:26:14.561Z,22.57
2018-10-05T13:28:49.102Z,22.60
2018-10-05T13:31:23.657Z,22.68
2018-10-05T13:33:58.238Z,22.62
2018-10-05T13:36:32.781Z,22.62
2018-10-05T13:39:09.607Z,22.60
2018-10-05T13:41:44.623Z,22.78
2018-10-05T13:44:19.377Z,22.88
2018-10-05T13:46:54.421Z,22.88
2018-10-05T13:49:29.056Z,22.90
2018-10-05T13:52:03.693Z,22.75
2018-10-05T13:54:38.340Z,22.73
2018-10-05T13:57:13.172Z,22.76
2018-10-05T13:59:47.859Z,22.80
2018-10-05T14:02:22.410Z,22.69
2018-10-05T14:04:56.982Z,22.78
2018-10-05T14:07:31.596Z,22.68
2018-10-05T14:10:06.397Z,22.61
2018-10-05T14:12:41.457Z,22.60
2018-10-05T14:15:16.073Z,22.75
2018-10-05T14:17:50.780Z,22.76
2018-10-05T14:20:25.795Z,22.71
2018-10-05T14:23:00.357Z,22.75
2018-10-05T14:25:35.357Z,22.53
2018-10-05T14:28:09.747Z,22.46
2018-10-05T14:30:44.774Z,22.56
2018-10-05T14:33:19.401Z,22.56
2018-10-05T14:35:54.416Z,22.64
2018-10-05T14:38:29.273Z,22.55
2018-10-05T14:41:03.772Z,22.63
2018-10-05T14:43:38.276Z,22.70
2018-10-05T14:46:12.917Z,22.57
2018-10-05T14:48:47.661Z,22.63
2018-10-05T14:51:22.215Z,22.70
2018-10-05T14:53:56.829Z,22.56
2018-10-05T14:56:31.496Z,22.49
2018-10-05T14:59:05.948Z,22.58
2018-10-05T15:01:40.410Z,22.55
2018-10-05T15:04:15.024Z,22.38
2018-10-05T15:06:49.736Z,22.54
2018-10-05T15:09:24.402Z,22.21
2018-10-05T15:11:58.829Z,22.24
2018-10-05T15:14:33.467Z,22.31
2018-10-05T15:17:08.328Z,22.21
2018-10-05T15:19:43.233Z,22.16
2018-10-05T15:22:18.072Z,22.22
2018-10-05T15:24:52.644Z,22.13
2018-10-05T15:27:27.361Z,22.01
2018-10-05T15:30:03.004Z,22.08
2018-10-05T15:32:37.581Z,22.00
2018-10-05T15:35:12.221Z,21.87
2018-10-05T15:37:46.845Z,21.91
2018-10-05T15:40:21.509Z,21.85
2018-10-05T15:42:56.157Z,21.83
2018-10-05T15:45:30.653Z,21.88
2018-10-05T15:48:05.385Z,21.86
2018-10-05T15:50:40.069Z,21.78
2018-10-05T15:53:14.568Z,21.74
2018-10-05T15:55:49.164Z,21.63
2018-10-05T15:58:23.794Z,21.74
2018-10-05T16:00:58.484Z,21.63
2018-10-05T16:03:33.089Z,21.55
2018-10-05T16:06:07.626Z,21.56
2018-10-05T16:08:42.224Z,21.56
2018-10-05T16:11:17.128Z,21.51
2018-10-05T16:13:51.740Z,21.36
2018-10-05T16:16:26.392Z,21.47
2018-10-05T16:19:00.943Z,21.45
2018-10-05T16:21:36.361Z,21.36
2018-10-05T16:24:19.750Z,21.28
2018-10-05T16:26:54.304Z,21.17
2018-10-05T16:29:28.900Z,21.24
2018-10-05T16:32:03.868Z,21.02
2018-10-05T16:34:38.466Z,21.02
2018-10-05T16:37:13.122Z,20.93
2018-10-05T16:39:47.548Z,20.92
2018-10-05T16:42:22.081Z,20.93
2018-10-05T16:44:56.722Z,20.92
2018-10-05T16:47:31.468Z,20.68
2018-10-05T16:50:06.228Z,20.48
2018-10-05T16:52:40.872Z,20.48
2018-10-05T16:55:15.517Z,20.33
2018-10-05T16:57:50.096Z,20.29
2018-10-05T17:00:24.696Z,20.17
2018-10-05T17:02:59.170Z,20.13
2018-10-05T17:05:33.803Z,20.13
2018-10-05T17:08:08.450Z,19.94
2018-10-05T17:10:43.307Z,19.75
2018-10-05T17:13:18.400Z,19.76
2018-10-05T17:15:52.882Z,19.61
2018-10-05T17:18:27.924Z,19.58
2018-10-05T17:21:02.348Z,19.52
2018-10-05T17:23:38.313Z,19.34
2018-10-05T17:26:13.072Z,19.25
2018-10-05T17:31:47.328Z,19.14
2018-10-05T17:34:22.016Z,19.21
2018-10-05T17:36:56.681Z,19.17
2018-10-05T17:39:31.325Z,19.08
2018-10-05T17:42:05.928Z,19.09
2018-10-05T17:44:40.561Z,19.15
2018-10-05T17:47:14.977Z,18.97
2018-10-05T17:49:49.705Z,19.02
2018-10-05T17:52:24.526Z,19.01
2018-10-05T17:54:59.102Z,19.05
2018-10-05T17:57:33.690Z,18.93
2018-10-05T18:00:15.251Z,18.89
2018-10-05T18:02:50.217Z,18.90
2018-10-05T18:05:25.238Z,18.75
2018-10-05T18:08:00.549Z,18.80
2018-10-05T18:10:35.748Z,18.77
2018-10-05T18:13:10.475Z,18.82
2018-10-05T18:15:45.065Z,18.66
2018-10-05T18:18:19.953Z,18.56
2018-10-05T18:20:54.962Z,18.64
2018-10-05T18:23:29.655Z,18.55
2018-10-05T18:26:04.640Z,18.63
2018-10-05T18:28:39.113Z,18.49
2018-10-05T18:31:14.101Z,18.52
2018-10-05T18:33:48.588Z,18.38
2018-10-05T18:36:23.769Z,18.45
2018-10-05T18:38:58.335Z,18.42
2018-10-05T18:41:32.890Z,18.31
2018-10-05T18:44:07.551Z,18.33
2018-10-05T18:46:42.009Z,18.30
2018-10-05T18:49:16.556Z,18.24
2018-10-05T18:51:51.137Z,18.34
2018-10-05T18:54:25.673Z,18.22
2018-10-05T18:57:13.664Z,18.23
2018-10-05T18:59:48.132Z,18.11
2018-10-05T19:02:23.030Z,18.11
2018-10-05T19:04:57.699Z,18.17
2018-10-05T19:07:32.418Z,18.11
2018-10-05T19:10:07.142Z,18.04
2018-10-05T19:12:41.700Z,18.02
2018-10-05T19:15:16.141Z,18.06
2018-10-05T19:17:50.869Z,18.09
2018-10-05T19:20:25.297Z,17.96
2018-10-05T19:23:01.108Z,17.99
2018-10-05T19:25:35.676Z,17.87
2018-10-05T19:28:10.685Z,17.96
2018-10-05T19:30:45.957Z,17.82
2018-10-05T19:33:20.636Z,17.76
2018-10-05T19:35:55.318Z,17.79
2018-10-05T19:38:29.973Z,17.83
2018-10-05T19:41:04.456Z,17.74
2018-10-05T19:43:38.953Z,17.78
2018-10-05T19:46:13.767Z,17.75
2018-10-05T19:48:48.164Z,17.61
2018-10-05T19:51:22.591Z,17.58
2018-10-05T19:53:57.083Z,17.55
2018-10-05T19:56:31.405Z,17.52
2018-10-05T19:59:06.017Z,17.54
2018-10-05T20:01:40.460Z,17.58
2018-10-05T20:04:14.996Z,17.49
2018-10-05T20:06:49.570Z,17.41
2018-10-05T20:09:24.250Z,17.31
2018-10-05T20:11:58.836Z,17.39
2018-10-05T20:14:34.593Z,17.31
2018-10-05T20:17:09.384Z,17.30
2018-10-05T20:19:44.260Z,17.16
2018-10-05T20:22:18.935Z,17.20
2018-10-05T20:24:53.838Z,17.23
2018-10-05T20:27:28.818Z,17.28
2018-10-05T20:30:03.597Z,17.21
2018-10-05T20:32:38.112Z,17.15
2018-10-05T20:35:12.717Z,17.17
2018-10-05T20:37:47.396Z,17.26
2018-10-05T20:40:21.768Z,17.22
2018-10-05T20:42:56.701Z,17.03
2018-10-05T20:45:31.469Z,17.09
2018-10-05T20:48:06.131Z,17.04
2018-10-05T20:50:40.740Z,17.05
2018-10-05T20:53:15.404Z,16.96
2018-10-05T20:55:50.079Z,16.86
2018-10-05T20:58:24.592Z,16.86
2018-10-05T21:00:59.302Z,16.92
2018-10-05T21:03:33.941Z,16.80
2018-10-05T21:06:08.465Z,16.85
2018-10-05T21:08:43.016Z,16.83
2018-10-05T21:11:17.799Z,16.76
2018-10-05T21:13:52.629Z,16.90
2018-10-05T21:16:27.600Z,16.80
2018-10-05T21:19:02.191Z,16.73
2018-10-05T21:21:36.744Z,16.73
2018-10-05T21:24:11.781Z,16.64
2018-10-05T21:26:46.521Z,16.63
2018-10-05T21:29:21.293Z,16.68
2018-10-05T21:31:56.032Z,16.66
2018-10-05T21:34:30.500Z,16.69
2018-10-05T21:37:05.248Z,16.66
2018-10-05T21:39:39.933Z,16.65
2018-10-05T21:42:15.124Z,16.66
2018-10-05T21:44:49.711Z,16.69
2018-10-05T21:47:24.133Z,16.63
2018-10-05T21:49:58.648Z,16.65
2018-10-05T21:52:33.372Z,16.66
2018-10-05T21:55:08.299Z,16.56
2018-10-05T21:57:42.908Z,16.51
2018-10-05T22:00:17.995Z,16.46
2018-10-05T22:02:52.490Z,16.48
2018-10-05T22:05:27.239Z,16.57
2018-10-05T22:08:01.854Z,16.55
2018-10-05T22:10:36.438Z,16.56
2018-10-05T22:13:11.048Z,16.52
2018-10-05T22:15:45.639Z,16.45
2018-10-05T22:18:20.176Z,16.45
2018-10-05T22:20:54.746Z,16.45
2018-10-05T22:23:29.653Z,16.37
2018-10-05T22:26:04.576Z,16.31
2018-10-05T22:28:39.747Z,16.20
2018-10-05T22:31:14.584Z,16.21
2018-10-05T22:33:49.514Z,16.22
2018-10-05T22:36:24.311Z,16.06
2018-10-05T22:38:59.161Z,16.13
2018-10-05T22:41:33.788Z,16.12
2018-10-05T22:44:08.753Z,16.06
2018-10-05T22:46:43.208Z,16.00
2018-10-05T22:49:17.849Z,15.86
2018-10-05T22:51:52.289Z,15.89
2018-10-05T22:54:26.804Z,15.72
2018-10-05T22:57:01.702Z,15.71
2018-10-05T22:59:36.321Z,15.73
2018-10-05T23:02:11.079Z,15.64
2018-10-05T23:04:45.680Z,15.62
2018-10-05T23:07:20.396Z,15.63
2018-10-05T23:09:55.041Z,15.63
2018-10-05T23:12:29.657Z,15.59
2018-10-05T23:15:04.397Z,15.63
2018-10-05T23:17:38.983Z,15.56
2018-10-05T23:20:13.440Z,15.57
2018-10-05T23:22:47.975Z,15.57
2018-10-05T23:25:22.628Z,15.53
2018-10-05T23:27:57.436Z,15.58
2018-10-05T23:30:32.137Z,15.56
2018-10-05T23:33:06.737Z,15.49
2018-10-05T23:35:41.601Z,15.52
2018-10-05T23:38:16.127Z,15.51
2018-10-05T23:40:50.781Z,15.50
2018-10-05T23:43:25.825Z,15.53
2018-10-05T23:46:00.680Z,15.50
2018-10-05T23:48:35.260Z,15.45
2018-10-05T23:51:09.924Z,15.49
2018-10-05T23:53:44.705Z,15.41
2018-10-05T23:56:19.181Z,15.40
2018-10-05T23:58:54.276Z,15.32
